createdAt,value
2022-09-21T00:00:11.280Z,10.26
2022-09-21T00:01:11.341Z,13.16
2022-09-21T00:02:11.314Z,11.55
2022-09-21T00:03:11.236Z,12.20
2022-09-21T00:04:11.227Z,11.23
2022-09-21T00:05:11.214Z,10.91
2022-09-21T00:06:11.217Z,9.94
2022-09-21T00:07:11.185Z,10.59
2022-09-21T00:08:11.168Z,11.55
2022-09-21T00:09:11.157Z,11.23
2022-09-21T00:10:11.143Z,9.94
2022-09-21T00:11:11.136Z,13.49
2022-09-21T00:12:11.114Z,10.91
2022-09-21T00:13:11.104Z,10.26
2022-09-21T00:14:11.095Z,10.59
2022-09-21T00:15:11.083Z,10.26
2022-09-21T00:16:11.141Z,12.52
2022-09-21T00:17:11.045Z,11.87
2022-09-21T00:18:11.035Z,11.87
2022-09-21T00:19:11.020Z,12.52
2022-09-21T00:20:11.007Z,11.23
2022-09-21T00:21:10.996Z,10.91
2022-09-21T00:22:10.997Z,9.94
2022-09-21T00:23:10.975Z,11.23
2022-09-21T00:24:10.953Z,11.87
2022-09-21T00:25:10.941Z,10.26
2022-09-21T00:26:10.924Z,11.55
2022-09-21T00:27:10.914Z,12.20
2022-09-21T00:28:10.893Z,12.52
2022-09-21T00:29:11.033Z,11.55
2022-09-21T00:30:10.871Z,10.59
2022-09-21T00:31:10.858Z,10.26
2022-09-21T00:32:10.842Z,12.20
2022-09-21T00:33:10.828Z,9.62
2022-09-21T00:34:10.813Z,9.30
2022-09-21T00:35:10.798Z,9.94
2022-09-21T00:36:10.789Z,12.20
2022-09-21T00:37:10.786Z,10.91
2022-09-21T00:38:10.775Z,12.84
2022-09-21T00:39:10.754Z,11.87
2022-09-21T00:40:10.846Z,9.94
2022-09-21T00:41:10.723Z,12.20
2022-09-21T00:42:10.695Z,11.23
2022-09-21T00:43:10.695Z,9.94
2022-09-21T00:44:10.673Z,11.55
2022-09-21T00:45:10.669Z,11.23
2022-09-21T00:46:10.702Z,10.59
2022-09-21T00:47:10.637Z,8.97
2022-09-21T00:48:10.622Z,13.81
2022-09-21T00:49:10.606Z,9.94
2022-09-21T00:50:10.594Z,11.87
2022-09-21T00:51:10.582Z,10.26
2022-09-21T00:52:10.571Z,13.16
2022-09-21T00:53:10.560Z,10.26
2022-09-21T00:54:10.557Z,10.26
2022-09-21T00:55:10.532Z,10.26
2022-09-21T00:56:10.508Z,12.20
2022-09-21T00:57:10.498Z,9.94
2022-09-21T00:58:10.481Z,11.23
2022-09-21T00:59:10.477Z,10.59
2022-09-21T01:00:10.460Z,12.52
2022-09-21T01:01:10.464Z,11.87
2022-09-21T01:02:10.445Z,9.94
2022-09-21T01:03:10.419Z,12.52
2022-09-21T01:04:10.395Z,10.26
2022-09-21T01:05:10.385Z,9.94
2022-09-21T01:06:10.368Z,9.94
2022-09-21T01:07:10.360Z,10.26
2022-09-21T01:08:10.339Z,9.62
2022-09-21T01:09:10.333Z,9.30
2022-09-21T01:10:10.335Z,9.94
2022-09-21T01:11:10.307Z,9.30
2022-09-21T01:12:10.295Z,10.26
2022-09-21T01:13:10.274Z,9.62
2022-09-21T01:14:10.260Z,11.87
2022-09-21T01:15:10.250Z,11.87
2022-09-21T01:16:10.272Z,12.84
2022-09-21T01:17:10.218Z,9.30
2022-09-21T01:18:10.204Z,9.30
2022-09-21T01:19:10.213Z,11.23
2022-09-21T01:20:10.178Z,10.26
2022-09-21T01:21:10.165Z,11.23
2022-09-21T01:22:10.144Z,12.52
2022-09-21T01:23:10.137Z,9.62
2022-09-21T01:24:10.121Z,11.55
2022-09-21T01:25:10.110Z,10.59
2022-09-21T01:26:10.120Z,11.87
2022-09-21T01:27:10.078Z,10.26
2022-09-21T01:28:10.069Z,10.59
2022-09-21T01:29:10.055Z,11.55
2022-09-21T01:30:10.039Z,12.52
2022-09-21T01:31:10.072Z,10.26
2022-09-21T01:32:10.014Z,12.84
2022-09-21T01:33:09.999Z,11.23
2022-09-21T01:34:09.985Z,11.55
2022-09-21T01:35:09.971Z,10.26
2022-09-21T01:36:09.959Z,9.30
2022-09-21T01:37:09.947Z,10.91
2022-09-21T01:38:09.931Z,10.91
2022-09-21T01:39:09.920Z,11.55
2022-09-21T01:40:09.943Z,12.52
2022-09-21T01:41:09.894Z,14.13
2022-09-21T01:42:09.890Z,9.94
2022-09-21T01:43:09.871Z,9.94
2022-09-21T01:44:09.849Z,9.62
2022-09-21T01:45:09.992Z,9.94
2022-09-21T01:46:09.820Z,9.94
2022-09-21T01:47:09.815Z,12.84
2022-09-21T01:48:09.796Z,10.91
2022-09-21T01:49:09.786Z,9.30
2022-09-21T01:50:09.767Z,12.20
2022-09-21T01:51:09.763Z,11.87
2022-09-21T01:52:09.741Z,8.65
2022-09-21T01:53:09.728Z,9.30
2022-09-21T01:54:09.713Z,10.59
2022-09-21T01:55:09.702Z,9.30
2022-09-21T01:56:09.687Z,10.59
2022-09-21T01:57:09.669Z,12.84
2022-09-21T01:58:09.682Z,9.62
2022-09-21T01:59:09.674Z,9.30
2022-09-21T02:00:09.635Z,11.55
2022-09-21T02:01:09.659Z,10.91
2022-09-21T02:02:09.668Z,9.94
2022-09-21T02:03:09.595Z,9.94
2022-09-21T02:04:09.639Z,8.65
2022-09-21T02:05:09.563Z,11.55
2022-09-21T02:06:09.558Z,10.26
2022-09-21T02:07:09.539Z,11.87
2022-09-21T02:08:09.530Z,12.20
2022-09-21T02:09:09.510Z,9.30
2022-09-21T02:10:09.503Z,7.69
2022-09-21T02:11:09.483Z,11.23
2022-09-21T02:12:09.483Z,11.23
2022-09-21T02:13:09.464Z,9.30
2022-09-21T02:14:09.467Z,11.23
2022-09-21T02:15:09.437Z,9.30
2022-09-21T02:16:09.492Z,11.23
2022-09-21T02:17:09.408Z,8.33
2022-09-21T02:18:09.396Z,11.55
2022-09-21T02:19:09.382Z,10.59
2022-09-21T02:20:09.365Z,11.87
2022-09-21T02:21:09.358Z,9.94
2022-09-21T02:22:09.344Z,8.97
2022-09-21T02:23:09.329Z,10.26
2022-09-21T02:24:09.310Z,9.62
2022-09-21T02:25:09.301Z,12.52
2022-09-21T02:26:09.295Z,11.87
2022-09-21T02:27:09.276Z,12.84
2022-09-21T02:28:09.460Z,11.87
2022-09-21T02:29:09.247Z,10.26
2022-09-21T02:30:09.314Z,10.26
2022-09-21T02:31:09.302Z,10.26
2022-09-21T02:32:09.213Z,10.91
2022-09-21T02:33:09.195Z,9.30
2022-09-21T02:34:09.188Z,9.30
2022-09-21T02:35:09.175Z,9.94
2022-09-21T02:36:09.153Z,12.20
2022-09-21T02:37:09.141Z,11.23
2022-09-21T02:38:09.127Z,8.97
2022-09-21T02:39:09.113Z,9.94
2022-09-21T02:40:09.171Z,10.59
2022-09-21T02:41:09.081Z,10.26
2022-09-21T02:42:09.075Z,8.33
2022-09-21T02:43:09.053Z,9.62
2022-09-21T02:44:09.052Z,10.26
2022-09-21T02:45:09.028Z,8.33
2022-09-21T02:46:09.095Z,10.26
2022-09-21T02:47:09.003Z,10.26
2022-09-21T02:48:08.991Z,11.87
2022-09-21T02:49:08.979Z,9.30
2022-09-21T02:50:08.961Z,9.94
2022-09-21T02:51:08.944Z,8.65
2022-09-21T02:52:08.942Z,8.97
2022-09-21T02:53:08.920Z,9.30
2022-09-21T02:54:08.911Z,11.23
2022-09-21T02:55:08.895Z,8.97
2022-09-21T02:56:08.885Z,11.87
2022-09-21T02:57:08.863Z,9.30
2022-09-21T02:58:08.856Z,10.59
2022-09-21T02:59:08.841Z,9.94
2022-09-21T03:00:08.828Z,9.62
2022-09-21T03:01:08.927Z,8.97
2022-09-21T03:02:08.969Z,12.84
2022-09-21T03:03:08.791Z,8.97
2022-09-21T03:04:08.780Z,10.91
2022-09-21T03:05:08.761Z,11.87
2022-09-21T03:06:08.748Z,9.30
2022-09-21T03:07:08.732Z,9.94
2022-09-21T03:08:08.721Z,11.23
2022-09-21T03:09:08.700Z,11.55
2022-09-21T03:10:08.692Z,10.91
2022-09-21T03:11:08.674Z,11.23
2022-09-21T03:12:08.665Z,10.91
2022-09-21T03:13:08.652Z,9.30
2022-09-21T03:14:08.641Z,9.30
2022-09-21T03:15:08.621Z,9.30
2022-09-21T03:16:08.665Z,12.20
2022-09-21T03:17:08.597Z,8.65
2022-09-21T03:18:08.649Z,11.87
2022-09-21T03:19:08.569Z,11.55
2022-09-21T03:20:08.565Z,10.59
2022-09-21T03:21:08.547Z,10.59
2022-09-21T03:22:08.534Z,8.65
2022-09-21T03:23:08.516Z,12.52
2022-09-21T03:24:08.508Z,9.94
2022-09-21T03:25:08.483Z,9.30
2022-09-21T03:26:08.473Z,9.30
2022-09-21T03:27:08.456Z,8.33
2022-09-21T03:28:08.445Z,8.65
2022-09-21T03:29:08.431Z,9.62
2022-09-21T03:30:08.426Z,11.23
2022-09-21T03:31:08.510Z,8.65
2022-09-21T03:32:08.398Z,8.01
2022-09-21T03:33:08.375Z,9.94
2022-09-21T03:34:08.448Z,8.65
2022-09-21T03:35:08.346Z,9.62
2022-09-21T03:36:08.342Z,9.30
2022-09-21T03:37:08.321Z,7.69
2022-09-21T03:38:08.305Z,8.97
2022-09-21T03:39:08.293Z,10.26
2022-09-21T03:40:08.330Z,9.94
2022-09-21T03:41:08.270Z,10.59
2022-09-21T03:42:08.260Z,11.23
2022-09-21T03:43:08.239Z,12.52
2022-09-21T03:44:08.270Z,11.87
2022-09-21T03:45:08.220Z,8.65
2022-09-21T03:46:08.248Z,8.97
2022-09-21T03:47:08.193Z,10.26
2022-09-21T03:48:08.174Z,10.59
2022-09-21T03:49:08.162Z,10.91
2022-09-21T03:50:10.152Z,8.65
2022-09-21T03:51:08.132Z,10.59
2022-09-21T03:52:08.120Z,10.26
2022-09-21T03:53:08.105Z,8.65
2022-09-21T03:54:08.093Z,9.62
2022-09-21T03:55:08.081Z,8.33
2022-09-21T03:56:08.074Z,11.23
2022-09-21T03:57:08.055Z,11.87
2022-09-21T03:58:08.041Z,9.62
2022-09-21T03:59:13.192Z,11.23
2022-09-21T04:00:09.035Z,8.65
2022-09-21T04:01:08.006Z,10.91
2022-09-21T04:02:07.988Z,9.94
2022-09-21T04:03:07.967Z,13.49
2022-09-21T04:04:08.071Z,11.55
2022-09-21T04:05:07.946Z,10.91
2022-09-21T04:06:07.952Z,9.30
2022-09-21T04:07:07.918Z,12.20
2022-09-21T04:08:07.908Z,9.62
2022-09-21T04:09:07.891Z,9.94
2022-09-21T04:10:07.882Z,9.62
2022-09-21T04:11:07.864Z,8.97
2022-09-21T04:12:07.855Z,9.94
2022-09-21T04:13:07.832Z,10.59
2022-09-21T04:14:07.821Z,10.59
2022-09-21T04:15:07.807Z,8.33
2022-09-21T04:16:07.964Z,9.62
2022-09-21T04:17:07.779Z,10.26
2022-09-21T04:18:07.767Z,8.33
2022-09-21T04:19:07.762Z,11.87
2022-09-21T04:20:07.744Z,10.26
2022-09-21T04:21:07.728Z,12.20
2022-09-21T04:22:07.750Z,8.65
2022-09-21T04:23:07.702Z,9.94
2022-09-21T04:24:07.693Z,8.01
2022-09-21T04:25:07.675Z,9.62
2022-09-21T04:26:07.669Z,9.30
2022-09-21T04:27:07.667Z,8.65
2022-09-21T04:28:07.637Z,9.30
2022-09-21T04:29:07.615Z,8.33
2022-09-21T04:30:07.613Z,7.36
2022-09-21T04:31:07.698Z,9.94
2022-09-21T04:32:07.584Z,10.91
2022-09-21T04:33:07.617Z,9.62
2022-09-21T04:34:07.558Z,8.65
2022-09-21T04:35:07.538Z,8.97
2022-09-21T04:36:07.528Z,10.91
2022-09-21T04:37:07.507Z,8.65
2022-09-21T04:38:07.519Z,7.69
2022-09-21T04:39:07.482Z,8.33
2022-09-21T04:40:07.587Z,11.87
2022-09-21T04:41:07.458Z,10.91
2022-09-21T04:42:07.445Z,9.94
2022-09-21T04:43:07.430Z,9.62
2022-09-21T04:44:07.424Z,8.65
2022-09-21T04:45:07.409Z,11.23
2022-09-21T04:46:07.434Z,9.30
2022-09-21T04:47:07.376Z,8.33
2022-09-21T04:48:07.367Z,9.94
2022-09-21T04:49:07.350Z,9.30
2022-09-21T04:50:07.339Z,9.30
2022-09-21T04:51:07.323Z,10.26
2022-09-21T04:52:07.317Z,8.65
2022-09-21T04:53:07.298Z,10.59
2022-09-21T04:54:07.305Z,9.30
2022-09-21T04:55:07.269Z,8.33
2022-09-21T04:56:07.268Z,8.65
2022-09-21T04:57:07.244Z,9.30
2022-09-21T04:58:07.228Z,9.62
2022-09-21T04:59:07.345Z,11.55
2022-09-21T05:00:07.201Z,11.55
2022-09-21T05:01:07.245Z,8.97
2022-09-21T05:02:07.180Z,9.62
2022-09-21T05:03:07.164Z,10.59
2022-09-21T05:04:07.151Z,8.33
2022-09-21T05:05:07.130Z,7.69
2022-09-21T05:06:07.122Z,12.52
2022-09-21T05:07:07.103Z,10.59
2022-09-21T05:08:07.094Z,8.33
2022-09-21T05:09:07.080Z,8.33
2022-09-21T05:10:07.093Z,9.62
2022-09-21T05:11:07.052Z,9.30
2022-09-21T05:12:07.086Z,8.65
2022-09-21T05:13:07.028Z,11.55
2022-09-21T05:14:07.018Z,9.30
2022-09-21T05:15:06.997Z,9.94
2022-09-21T05:16:07.065Z,8.01
2022-09-21T05:17:06.972Z,8.97
2022-09-21T05:18:06.961Z,8.65
2022-09-21T05:19:07.159Z,11.23
2022-09-21T05:20:06.934Z,11.23
2022-09-21T05:21:06.915Z,8.01
2022-09-21T05:22:06.904Z,8.65
2022-09-21T05:23:06.888Z,9.94
2022-09-21T05:24:06.882Z,8.01
2022-09-21T05:25:06.864Z,8.65
2022-09-21T05:26:06.885Z,7.69
2022-09-21T05:27:06.844Z,9.62
2022-09-21T05:28:06.826Z,11.55
2022-09-21T05:29:06.922Z,8.65
2022-09-21T05:30:06.803Z,8.33
2022-09-21T05:31:17.696Z,8.97
2022-09-21T05:32:07.795Z,9.30
2022-09-21T05:33:06.753Z,9.94
2022-09-21T05:34:06.744Z,8.01
2022-09-21T05:35:06.727Z,8.01
2022-09-21T05:36:06.723Z,9.30
2022-09-21T05:37:06.707Z,8.33
2022-09-21T05:38:06.691Z,8.33
2022-09-21T05:39:06.672Z,8.97
2022-09-21T05:40:06.710Z,9.62
2022-09-21T05:41:06.640Z,10.26
2022-09-21T05:42:06.652Z,6.72
2022-09-21T05:43:06.613Z,9.94
2022-09-21T05:44:06.605Z,7.69
2022-09-21T05:45:06.589Z,8.97
2022-09-21T05:46:06.622Z,9.62
2022-09-21T05:47:06.561Z,9.62
2022-09-21T05:48:06.556Z,8.01
2022-09-21T05:49:06.661Z,8.01
2022-09-21T05:50:06.529Z,11.23
2022-09-21T05:51:06.511Z,7.69
2022-09-21T05:52:06.507Z,9.62
2022-09-21T05:53:06.485Z,7.69
2022-09-21T05:54:06.482Z,9.62
2022-09-21T05:55:06.460Z,8.33
2022-09-21T05:56:06.450Z,9.30
2022-09-21T05:57:06.426Z,8.33
2022-09-21T05:58:06.434Z,11.23
2022-09-21T05:59:06.401Z,9.62
2022-09-21T06:00:06.410Z,8.33
2022-09-21T06:01:06.416Z,11.23
2022-09-21T06:02:06.440Z,9.62
2022-09-21T06:03:06.346Z,8.01
2022-09-21T06:04:06.465Z,6.72
2022-09-21T06:05:06.323Z,7.69
2022-09-21T06:06:06.320Z,7.69
2022-09-21T06:07:06.295Z,8.33
2022-09-21T06:08:06.284Z,8.33
2022-09-21T06:09:06.266Z,7.69
2022-09-21T06:10:06.250Z,8.01
2022-09-21T06:11:06.247Z,8.01
2022-09-21T06:12:06.229Z,9.30
2022-09-21T06:13:06.217Z,8.01
2022-09-21T06:14:06.333Z,9.62
2022-09-21T06:15:06.200Z,8.97
2022-09-21T06:16:06.168Z,8.97
2022-09-21T06:17:06.160Z,8.65
2022-09-21T06:18:06.146Z,7.69
2022-09-21T06:19:06.135Z,8.65
2022-09-21T06:20:06.116Z,8.65
2022-09-21T06:21:06.101Z,8.97
2022-09-21T06:22:06.085Z,8.33
2022-09-21T06:23:06.077Z,9.30
2022-09-21T06:24:06.064Z,12.20
2022-09-21T06:25:06.053Z,8.65
2022-09-21T06:26:06.033Z,8.33
2022-09-21T06:27:06.018Z,8.33
2022-09-21T06:28:06.003Z,9.94
2022-09-21T06:29:05.997Z,8.65
2022-09-21T06:30:06.002Z,8.65
2022-09-21T06:31:06.015Z,9.62
2022-09-21T06:32:05.955Z,10.59
2022-09-21T06:33:05.944Z,8.01
2022-09-21T06:34:06.055Z,9.30
2022-09-21T06:35:05.920Z,9.62
2022-09-21T06:36:05.902Z,7.69
2022-09-21T06:37:05.886Z,10.59
2022-09-21T06:38:05.868Z,8.33
2022-09-21T06:39:05.854Z,11.55
2022-09-21T06:40:05.888Z,8.65
2022-09-21T06:41:05.831Z,10.26
2022-09-21T06:42:05.812Z,8.65
2022-09-21T06:43:05.810Z,7.36
2022-09-21T06:44:05.921Z,7.36
2022-09-21T06:45:05.776Z,8.97
2022-09-21T06:46:05.805Z,8.33
2022-09-21T06:47:05.750Z,9.30
2022-09-21T06:48:05.734Z,9.30
2022-09-21T06:49:05.779Z,8.65
2022-09-21T06:50:05.708Z,8.65
2022-09-21T06:51:05.698Z,8.97
2022-09-21T06:52:05.685Z,8.97
2022-09-21T06:53:05.667Z,8.97
2022-09-21T06:54:05.651Z,8.65
2022-09-21T06:55:05.639Z,9.30
2022-09-21T06:56:05.629Z,11.23
2022-09-21T06:57:05.620Z,8.97
2022-09-21T06:58:05.603Z,9.94
2022-09-21T06:59:05.594Z,9.30
2022-09-21T07:00:05.577Z,8.33
2022-09-21T07:01:05.721Z,8.65
2022-09-21T07:02:05.670Z,8.65
2022-09-21T07:03:05.535Z,10.59
2022-09-21T07:04:05.646Z,9.30
2022-09-21T07:05:05.510Z,8.01
2022-09-21T07:06:05.492Z,8.33
2022-09-21T07:07:05.487Z,8.65
2022-09-21T07:08:05.805Z,11.23
2022-09-21T07:10:06.458Z,8.97
2022-09-21T07:11:05.430Z,8.65
2022-09-21T07:12:05.408Z,8.97
2022-09-21T07:13:05.403Z,11.23
2022-09-21T07:14:05.542Z,8.65
2022-09-21T07:15:05.375Z,8.65
2022-09-21T07:16:05.412Z,9.30
2022-09-21T07:17:05.341Z,9.62
2022-09-21T07:18:05.984Z,9.62
2022-09-21T07:19:10.925Z,8.01
2022-09-21T07:20:06.322Z,12.20
2022-09-21T07:21:05.296Z,9.30
2022-09-21T07:22:05.270Z,10.26
2022-09-21T07:23:05.258Z,7.69
2022-09-21T07:24:09.601Z,9.94
2022-09-21T07:25:06.255Z,9.62
2022-09-21T07:26:05.218Z,8.65
2022-09-21T07:27:05.213Z,9.94
2022-09-21T07:28:05.195Z,8.33
2022-09-21T07:29:05.362Z,8.33
2022-09-21T07:30:05.165Z,8.33
2022-09-21T07:31:05.156Z,8.33
2022-09-21T07:32:05.140Z,10.59
2022-09-21T07:33:05.124Z,9.62
2022-09-21T07:34:05.131Z,11.23
2022-09-21T07:35:05.101Z,9.94
2022-09-21T07:36:05.084Z,9.30
2022-09-21T07:37:05.073Z,9.62
2022-09-21T07:38:05.058Z,8.97
2022-09-21T07:39:05.051Z,10.26
2022-09-21T07:40:05.104Z,11.23
2022-09-21T07:41:05.023Z,10.26
2022-09-21T07:42:05.028Z,8.97
2022-09-21T07:43:04.992Z,9.94
2022-09-21T07:44:05.108Z,9.94
2022-09-21T07:45:05.182Z,7.04
2022-09-21T07:46:04.988Z,9.30
2022-09-21T07:47:04.940Z,11.23
2022-09-21T07:48:04.925Z,10.26
2022-09-21T07:49:04.916Z,9.62
2022-09-21T07:50:04.920Z,9.30
2022-09-21T07:51:04.886Z,9.62
2022-09-21T07:52:07.325Z,8.97
2022-09-21T07:53:04.858Z,9.30
2022-09-21T07:54:04.841Z,11.23
2022-09-21T07:55:04.836Z,9.94
2022-09-21T07:56:04.811Z,8.65
2022-09-21T07:57:04.806Z,9.30
2022-09-21T07:58:04.786Z,11.23
2022-09-21T07:59:04.774Z,9.94
2022-09-21T08:00:04.762Z,9.94
2022-09-21T08:01:04.780Z,9.94
2022-09-21T08:02:04.804Z,8.97
2022-09-21T08:03:04.724Z,7.69
2022-09-21T08:04:04.875Z,8.97
2022-09-21T08:05:04.695Z,9.94
2022-09-21T08:06:04.716Z,10.26
2022-09-21T08:07:04.666Z,9.94
2022-09-21T08:08:04.659Z,8.97
2022-09-21T08:09:04.653Z,9.62
2022-09-21T08:10:04.633Z,10.59
2022-09-21T08:11:04.614Z,8.97
2022-09-21T08:12:04.596Z,8.65
2022-09-21T08:13:04.595Z,9.94
2022-09-21T08:14:04.700Z,8.65
2022-09-21T08:15:04.566Z,8.33
2022-09-21T08:16:04.652Z,9.94
2022-09-21T08:17:04.538Z,7.69
2022-09-21T08:18:04.518Z,9.94
2022-09-21T08:19:04.514Z,11.55
2022-09-21T08:20:04.492Z,8.97
2022-09-21T08:21:04.479Z,9.94
2022-09-21T08:22:04.525Z,12.84
2022-09-21T08:23:04.455Z,9.94
2022-09-21T08:24:04.436Z,9.62
2022-09-21T08:25:04.431Z,8.33
2022-09-21T08:26:04.407Z,10.26
2022-09-21T08:27:04.397Z,8.97
2022-09-21T08:28:09.416Z,9.30
2022-09-21T08:29:04.438Z,8.97
2022-09-21T08:30:04.355Z,9.30
2022-09-21T08:31:04.365Z,9.94
2022-09-21T08:32:04.393Z,10.26
2022-09-21T08:33:04.324Z,8.97
2022-09-21T08:34:04.301Z,8.33
2022-09-21T08:35:04.300Z,9.62
2022-09-21T08:36:04.285Z,8.33
2022-09-21T08:37:04.258Z,9.94
2022-09-21T08:38:04.279Z,9.30
2022-09-21T08:39:04.234Z,10.59
2022-09-21T08:40:04.272Z,8.65
2022-09-21T08:41:04.209Z,7.36
2022-09-21T08:42:04.193Z,9.94
2022-09-21T08:43:04.180Z,9.94
2022-09-21T08:44:04.163Z,9.62
2022-09-21T08:45:04.155Z,10.59
2022-09-21T08:46:04.141Z,9.62
2022-09-21T08:47:04.175Z,9.94
2022-09-21T08:48:04.123Z,9.62
2022-09-21T08:49:04.101Z,11.55
2022-09-21T08:50:04.091Z,9.30
2022-09-21T08:51:04.078Z,12.20
2022-09-21T08:52:04.055Z,9.62
2022-09-21T08:53:04.051Z,9.94
2022-09-21T08:54:04.153Z,11.55
2022-09-21T08:55:04.026Z,8.97
2022-09-21T08:56:04.010Z,9.62
2022-09-21T08:57:05.779Z,9.62
2022-09-21T08:58:03.986Z,9.94
2022-09-21T08:59:03.973Z,11.23
2022-09-21T09:00:03.958Z,10.59
2022-09-21T09:01:07.071Z,11.23
2022-09-21T09:02:04.024Z,9.62
2022-09-21T09:03:03.918Z,9.62
2022-09-21T09:04:05.785Z,9.94
2022-09-21T09:05:03.892Z,10.59
2022-09-21T09:06:03.875Z,10.91
2022-09-21T09:07:03.867Z,11.23
2022-09-21T09:08:03.848Z,11.55
2022-09-21T09:09:03.842Z,10.26
2022-09-21T09:10:03.847Z,11.55
2022-09-21T09:11:03.824Z,10.91
2022-09-21T09:12:07.433Z,10.91
2022-09-21T09:13:04.816Z,10.59
2022-09-21T09:14:03.777Z,11.87
2022-09-21T09:15:03.764Z,11.87
2022-09-21T09:16:03.808Z,10.59
2022-09-21T09:17:03.736Z,10.59
2022-09-21T09:18:03.717Z,9.94
2022-09-21T09:19:03.727Z,9.94
2022-09-21T09:20:03.694Z,10.91
2022-09-21T09:21:03.693Z,10.26
2022-09-21T09:22:03.672Z,10.26
2022-09-21T09:23:03.662Z,11.87
2022-09-21T09:24:03.652Z,10.26
2022-09-21T09:25:03.632Z,9.94
2022-09-21T09:26:03.639Z,9.62
2022-09-21T09:27:03.612Z,10.59
2022-09-21T09:28:03.598Z,8.65
2022-09-21T09:29:03.587Z,11.55
2022-09-21T09:30:04.158Z,10.59
2022-09-21T09:31:03.595Z,11.55
2022-09-21T09:32:03.592Z,12.52
2022-09-21T09:33:03.543Z,10.59
2022-09-21T09:34:03.522Z,11.55
2022-09-21T09:35:03.514Z,10.59
2022-09-21T09:36:03.504Z,10.59
2022-09-21T09:37:03.491Z,11.87
2022-09-21T09:38:03.474Z,11.55
2022-09-21T09:39:03.459Z,12.84
2022-09-21T09:40:03.940Z,12.20
2022-09-21T09:41:03.438Z,10.91
2022-09-21T09:42:03.478Z,12.84
2022-09-21T09:43:04.947Z,12.52
2022-09-21T09:44:03.390Z,11.55
2022-09-21T09:45:03.383Z,10.26
2022-09-21T09:46:03.369Z,11.55
2022-09-21T09:47:03.447Z,10.59
2022-09-21T09:48:03.340Z,11.55
2022-09-21T09:49:03.383Z,11.87
2022-09-21T09:50:03.319Z,10.59
2022-09-21T09:51:03.310Z,11.87
2022-09-21T09:52:03.297Z,11.55
2022-09-21T09:53:03.284Z,13.16
2022-09-21T09:54:06.870Z,11.23
2022-09-21T09:55:04.276Z,10.26
2022-09-21T09:56:03.250Z,11.87
2022-09-21T09:57:03.240Z,11.23
2022-09-21T09:58:03.253Z,11.23
2022-09-21T09:59:03.218Z,10.91
2022-09-21T10:00:03.195Z,10.91
2022-09-21T10:01:03.187Z,11.55
2022-09-21T10:02:03.281Z,11.87
2022-09-21T10:03:03.165Z,12.20
2022-09-21T10:04:03.190Z,11.55
2022-09-21T10:05:03.135Z,13.49
2022-09-21T10:06:03.123Z,11.55
2022-09-21T10:07:03.108Z,11.87
2022-09-21T10:08:03.096Z,11.87
2022-09-21T10:09:03.086Z,13.16
2022-09-21T10:10:03.070Z,12.20
2022-09-21T10:11:03.060Z,11.87
2022-09-21T10:12:08.076Z,13.81
2022-09-21T10:13:04.058Z,11.23
2022-09-21T10:14:03.050Z,10.91
2022-09-21T10:15:03.016Z,12.84
2022-09-21T10:16:03.078Z,12.84
2022-09-21T10:17:02.990Z,11.55
2022-09-21T10:18:02.979Z,12.20
2022-09-21T10:19:02.965Z,11.55
2022-09-21T10:20:02.948Z,12.84
2022-09-21T10:21:02.934Z,11.55
2022-09-21T10:22:02.919Z,13.16
2022-09-21T10:23:02.916Z,13.81
2022-09-21T10:24:02.895Z,12.20
2022-09-21T10:25:02.881Z,13.16
2022-09-21T10:26:02.870Z,11.23
2022-09-21T10:27:02.857Z,12.84
2022-09-21T10:28:02.852Z,14.78
2022-09-21T10:29:02.838Z,11.55
2022-09-21T10:30:02.847Z,13.16
2022-09-21T10:31:02.877Z,11.23
2022-09-21T10:32:02.802Z,13.81
2022-09-21T10:33:02.790Z,12.52
2022-09-21T10:34:02.775Z,10.91
2022-09-21T10:35:02.758Z,13.16
2022-09-21T10:36:02.750Z,12.20
2022-09-21T10:37:02.734Z,12.84
2022-09-21T10:38:02.727Z,13.16
2022-09-21T10:39:02.706Z,12.84
2022-09-21T10:40:02.758Z,12.84
2022-09-21T10:41:02.676Z,11.55
2022-09-21T10:42:02.667Z,12.52
2022-09-21T10:43:02.655Z,12.84
2022-09-21T10:44:02.641Z,13.81
2022-09-21T10:45:02.629Z,12.52
2022-09-21T10:46:02.716Z,14.45
2022-09-21T10:47:02.604Z,13.81
2022-09-21T10:48:02.594Z,13.49
2022-09-21T10:49:02.587Z,13.49
2022-09-21T10:50:02.571Z,12.84
2022-09-21T10:51:02.549Z,13.16
2022-09-21T10:52:02.542Z,12.84
2022-09-21T10:53:02.521Z,12.52
2022-09-21T10:54:02.512Z,14.45
2022-09-21T10:55:02.497Z,11.87
2022-09-21T10:56:15.417Z,12.20
2022-09-21T10:57:03.500Z,13.16
2022-09-21T10:58:02.461Z,13.16
2022-09-21T10:59:02.448Z,12.84
2022-09-21T11:00:02.444Z,13.16
2022-09-21T11:01:02.415Z,13.16
2022-09-21T11:02:02.553Z,12.52
2022-09-21T11:03:02.419Z,15.10
2022-09-21T11:04:02.383Z,12.52
2022-09-21T11:05:02.362Z,12.20
2022-09-21T11:06:02.354Z,11.55
2022-09-21T11:07:02.338Z,12.84
2022-09-21T11:08:02.329Z,12.52
2022-09-21T11:09:02.312Z,13.16
2022-09-21T11:10:02.303Z,13.16
2022-09-21T11:11:02.289Z,11.87
2022-09-21T11:12:02.279Z,12.84
2022-09-21T11:13:02.262Z,12.84
2022-09-21T11:14:02.254Z,12.20
2022-09-21T11:15:02.234Z,13.16
2022-09-21T11:16:02.338Z,13.16
2022-09-21T11:17:02.203Z,15.10
2022-09-21T11:18:02.219Z,14.45
2022-09-21T11:19:02.178Z,12.84
2022-09-21T11:20:02.171Z,11.87
2022-09-21T11:21:02.154Z,13.16
2022-09-21T11:22:02.143Z,12.52
2022-09-21T11:23:02.130Z,13.16
2022-09-21T11:24:02.132Z,12.84
2022-09-21T11:25:02.107Z,12.84
2022-09-21T11:26:02.096Z,14.45
2022-09-21T11:27:02.074Z,12.20
2022-09-21T11:28:02.068Z,13.81
2022-09-21T11:29:02.052Z,12.84
2022-09-21T11:30:02.037Z,11.55
2022-09-21T11:31:02.069Z,11.87
2022-09-21T11:32:05.795Z,12.20
2022-09-21T11:33:01.994Z,10.59
2022-09-21T11:34:02.006Z,12.52
2022-09-21T11:35:01.972Z,12.52
2022-09-21T11:36:01.961Z,13.49
2022-09-21T11:37:02.005Z,12.52
2022-09-21T11:38:01.935Z,11.55
2022-09-21T11:39:01.915Z,11.23
2022-09-21T11:40:01.918Z,12.52
2022-09-21T11:41:01.893Z,13.81
2022-09-21T11:42:01.892Z,14.45
2022-09-21T11:43:01.860Z,10.59
2022-09-21T11:44:03.239Z,13.49
2022-09-21T11:45:01.861Z,13.49
2022-09-21T11:46:01.866Z,11.87
2022-09-21T11:47:01.818Z,12.52
2022-09-21T11:48:01.800Z,13.49
2022-09-21T11:49:01.788Z,12.52
2022-09-21T11:50:26.521Z,12.84
2022-09-21T11:51:02.787Z,13.16
2022-09-21T11:52:01.747Z,12.52
2022-09-21T11:53:01.736Z,12.84
2022-09-21T11:54:01.726Z,13.49
2022-09-21T11:55:01.713Z,12.20
2022-09-21T11:56:01.767Z,13.16
2022-09-21T11:57:01.697Z,11.23
2022-09-21T11:58:01.686Z,12.52
2022-09-21T11:59:01.708Z,11.55
2022-09-21T12:00:01.645Z,12.52
2022-09-21T12:01:01.716Z,12.52
2022-09-21T12:02:01.664Z,13.16
2022-09-21T12:03:01.603Z,12.52
2022-09-21T12:04:01.622Z,11.87
2022-09-21T12:05:01.574Z,13.49
2022-09-21T12:06:01.590Z,12.52
2022-09-21T12:07:01.657Z,13.81
2022-09-21T12:08:01.539Z,12.84
2022-09-21T12:09:01.526Z,12.52
2022-09-21T12:10:01.515Z,13.81
2022-09-21T12:11:01.494Z,13.16
2022-09-21T12:12:01.486Z,13.16
2022-09-21T12:13:01.475Z,12.52
2022-09-21T12:14:01.468Z,13.49
2022-09-21T12:15:01.495Z,12.84
2022-09-21T12:16:01.498Z,13.16
2022-09-21T12:17:01.508Z,13.49
2022-09-21T12:18:01.414Z,13.16
2022-09-21T12:19:01.399Z,14.45
2022-09-21T12:20:01.446Z,12.84
2022-09-21T12:21:01.369Z,14.13
2022-09-21T12:22:01.380Z,14.13
2022-09-21T12:23:01.343Z,13.49
2022-09-21T12:24:01.339Z,13.81
2022-09-21T12:25:01.323Z,13.49
2022-09-21T12:26:01.308Z,12.20
2022-09-21T12:27:01.291Z,13.81
2022-09-21T12:28:01.283Z,12.84
2022-09-21T12:29:01.275Z,13.16
2022-09-21T12:30:01.261Z,13.81
2022-09-21T12:31:01.288Z,12.84
2022-09-21T12:32:01.236Z,13.81
2022-09-21T12:33:01.270Z,13.81
2022-09-21T12:34:01.208Z,13.16
2022-09-21T12:35:01.196Z,13.16
2022-09-21T12:36:01.176Z,12.20
2022-09-21T12:37:01.164Z,13.49
2022-09-21T12:38:01.175Z,12.84
2022-09-21T12:39:01.137Z,12.52
2022-09-21T12:40:01.161Z,12.52
2022-09-21T12:41:01.115Z,12.52
2022-09-21T12:42:01.102Z,13.16
2022-09-21T12:43:01.087Z,13.49
2022-09-21T12:44:01.079Z,13.81
2022-09-21T12:45:01.062Z,12.52
2022-09-21T12:46:01.066Z,13.16
2022-09-21T12:47:01.037Z,14.78
2022-09-21T12:48:01.022Z,14.13
2022-09-21T12:49:01.006Z,14.78
2022-09-21T12:50:01.002Z,14.45
2022-09-21T12:51:05.682Z,13.49
2022-09-21T12:52:00.975Z,11.55
2022-09-21T12:53:00.959Z,13.49
2022-09-21T12:54:00.988Z,12.84
2022-09-21T12:55:01.318Z,14.45
2022-09-21T12:56:00.926Z,14.78
2022-09-21T12:57:03.809Z,13.16
2022-09-21T12:58:15.104Z,12.84
2022-09-21T12:59:01.904Z,13.49
2022-09-21T13:00:00.870Z,13.49
2022-09-21T13:01:00.968Z,13.49
2022-09-21T13:02:00.955Z,13.16
2022-09-21T13:03:00.831Z,12.52
2022-09-21T13:04:00.864Z,15.10